sensor_id;sensor_type;location;lat;lon;timestamp;pressure;altitude;pressure_sealevel;temperature;humidity
73817;BME280;62146;53.232;-1.304;2022-11-20T00:01:27;99924.88;;;7.74;100.00
73817;BME280;62146;53.232;-1.304;2022-11-20T00:03:55;99917.69;;;7.70;100.00
73817;BME280;62146;53.232;-1.304;2022-11-20T00:06:22;99921.44;;;7.74;100.00
73817;BME280;62146;53.232;-1.304;2022-11-20T00:08:49;99916.19;;;7.74;100.00
73817;BME280;62146;53.232;-1.304;2022-11-20T00:11:18;99915.59;;;7.72;100.00
73817;BME280;62146;53.232;-1.304;2022-11-20T00:13:47;99910.56;;;7.70;100.00
73817;BME280;62146;53.232;-1.304;2022-11-20T00:16:16;99913.41;;;7.69;100.00
73817;BME280;62146;53.232;-1.304;2022-11-20T00:18:43;99915.03;;;7.70;100.00
73817;BME280;62146;53.232;-1.304;2022-11-20T00:21:13;99900.81;;;7.71;100.00
73817;BME280;62146;53.232;-1.304;2022-11-20T00:23:40;99895.53;;;7.71;100.00
73817;BME280;62146;53.232;-1.304;2022-11-20T00:26:09;99892.09;;;7.70;100.00
73817;BME280;62146;53.232;-1.304;2022-11-20T00:28:36;99883.13;;;7.71;100.00
73817;BME280;62146;53.232;-1.304;2022-11-20T00:33:34;99881.53;;;7.70;100.00
73817;BME280;62146;53.232;-1.304;2022-11-20T00:36:09;99888.41;;;7.71;100.00
73817;BME280;62146;53.232;-1.304;2022-11-20T00:38:36;99881.28;;;7.72;100.00
73817;BME280;62146;53.232;-1.304;2022-11-20T00:41:06;99871.97;;;7.69;100.00
73817;BME280;62146;53.232;-1.304;2022-11-20T00:43:33;99871.44;;;7.67;100.00
73817;BME280;62146;53.232;-1.304;2022-11-20T00:46:02;99858.50;;;7.66;100.00
73817;BME280;62146;53.232;-1.304;2022-11-20T00:48:30;99861.44;;;7.69;100.00
73817;BME280;62146;53.232;-1.304;2022-11-20T00:50:57;99851.91;;;7.68;100.00
73817;BME280;62146;53.232;-1.304;2022-11-20T00:53:24;99854.56;;;7.68;100.00
73817;BME280;62146;53.232;-1.304;2022-11-20T00:55:59;99856.16;;;7.69;100.00
73817;BME280;62146;53.232;-1.304;2022-11-20T00:58:32;99856.41;;;7.68;100.00
73817;BME280;62146;53.232;-1.304;2022-11-20T01:01:04;99845.59;;;7.69;100.00
73817;BME280;62146;53.232;-1.304;2022-11-20T01:03:32;99845.84;;;7.68;100.00
73817;BME280;62146;53.232;-1.304;2022-11-20T01:06:00;99842.97;;;7.69;100.00
73817;BME280;62146;53.232;-1.304;2022-11-20T01:08:31;99835.03;;;7.69;100.00
73817;BME280;62146;53.232;-1.304;2022-11-20T01:11:06;99828.97;;;7.69;100.00
73817;BME280;62146;53.232;-1.304;2022-11-20T01:13:33;99827.97;;;7.70;100.00
73817;BME280;62146;53.232;-1.304;2022-11-20T01:18:30;99818.41;;;7.69;100.00
73817;BME280;62146;53.232;-1.304;2022-11-20T01:21:01;99820.25;;;7.68;100.00
73817;BME280;62146;53.232;-1.304;2022-11-20T01:23:36;99805.47;;;7.67;100.00
73817;BME280;62146;53.232;-1.304;2022-11-20T01:26:06;99803.06;;;7.66;100.00
73817;BME280;62146;53.232;-1.304;2022-11-20T01:28:34;99803.06;;;7.66;100.00
73817;BME280;62146;53.232;-1.304;2022-11-20T01:31:00;99796.97;;;7.65;100.00
73817;BME280;62146;53.232;-1.304;2022-11-20T01:33:27;99798.00;;;7.64;100.00
73817;BME280;62146;53.232;-1.304;2022-11-20T01:36:03;99787.13;;;7.61;100.00
73817;BME280;62146;53.232;-1.304;2022-11-20T01:38:30;99794.56;;;7.64;100.00
73817;BME280;62146;53.232;-1.304;2022-11-20T01:40:57;99773.47;;;7.64;100.00
73817;BME280;62146;53.232;-1.304;2022-11-20T01:43:24;99779.53;;;7.64;100.00
73817;BME280;62146;53.232;-1.304;2022-11-20T01:46:24;99771.88;;;7.63;100.00
73817;BME280;62146;53.232;-1.304;2022-11-20T01:48:55;99770.28;;;7.62;100.00
73817;BME280;62146;53.232;-1.304;2022-11-20T01:51:45;99759.72;;;7.62;100.00
73817;BME280;62146;53.232;-1.304;2022-11-20T01:54:21;99764.75;;;7.63;100.00
73817;BME280;62146;53.232;-1.304;2022-11-20T01:56:54;99756.06;;;7.63;100.00
73817;BME280;62146;53.232;-1.304;2022-11-20T01:59:23;99745.50;;;7.63;100.00
73817;BME280;62146;53.232;-1.304;2022-11-20T02:01:50;99750.53;;;7.64;100.00
73817;BME280;62146;53.232;-1.304;2022-11-20T02:04:18;99747.88;;;7.64;100.00
73817;BME280;62146;53.232;-1.304;2022-11-20T02:07:01;99745.25;;;7.64;100.00
73817;BME280;62146;53.232;-1.304;2022-11-20T02:09:28;99742.59;;;7.64;100.00
73817;BME280;62146;53.232;-1.304;2022-11-20T02:11:55;99737.34;;;7.64;100.00
73817;BME280;62146;53.232;-1.304;2022-11-20T02:14:23;99735.75;;;7.63;100.00
73817;BME280;62146;53.232;-1.304;2022-11-20T02:16:51;99738.13;;;7.65;100.00
73817;BME280;62146;53.232;-1.304;2022-11-20T02:19:31;99738.94;;;7.65;100.00
73817;BME280;62146;53.232;-1.304;2022-11-20T02:24:30;99720.47;;;7.65;100.00
73817;BME280;62146;53.232;-1.304;2022-11-20T02:27:00;99713.38;;;7.66;100.00
73817;BME280;62146;53.232;-1.304;2022-11-20T02:29:36;99706.72;;;7.63;100.00
73817;BME280;62146;53.232;-1.304;2022-11-20T02:32:04;99711.75;;;7.65;100.00
73817;BME280;62146;53.232;-1.304;2022-11-20T02:34:32;99696.97;;;7.64;100.00
73817;BME280;62146;53.232;-1.304;2022-11-20T02:36:59;99695.13;;;7.64;100.00
73817;BME280;62146;53.232;-1.304;2022-11-20T02:39:27;99684.56;;;7.64;100.00
73817;BME280;62146;53.232;-1.304;2022-11-20T02:41:55;99676.09;;;7.62;100.00
73817;BME280;62146;53.232;-1.304;2022-11-20T02:44:22;99667.13;;;7.63;100.00
73817;BME280;62146;53.232;-1.304;2022-11-20T02:46:48;99661.88;;;7.63;100.00
73817;BME280;62146;53.232;-1.304;2022-11-20T02:49:15;99663.72;;;7.63;100.00
73817;BME280;62146;53.232;-1.304;2022-11-20T02:51:43;99655.00;;;7.62;100.00
73817;BME280;62146;53.232;-1.304;2022-11-20T02:54:10;99659.22;;;7.63;100.00
73817;BME280;62146;53.232;-1.304;2022-11-20T02:56:38;99646.50;;;7.60;100.00
73817;BME280;62146;53.232;-1.304;2022-11-20T02:59:05;99642.81;;;7.61;100.00
73817;BME280;62146;53.232;-1.304;2022-11-20T03:01:31;99639.16;;;7.62;100.00
73817;BME280;62146;53.232;-1.304;2022-11-20T03:03:58;99638.38;;;7.62;100.00
73817;BME280;62146;53.232;-1.304;2022-11-20T03:06:24;99641.81;;;7.62;100.00
73817;BME280;62146;53.232;-1.304;2022-11-20T03:08:51;99636.28;;;7.64;100.00
73817;BME280;62146;53.232;-1.304;2022-11-20T03:11:17;99626.78;;;7.63;100.00
73817;BME280;62146;53.232;-1.304;2022-11-20T03:13:44;99620.69;;;7.62;100.00
73817;BME280;62146;53.232;-1.304;2022-11-20T03:16:21;99610.16;;;7.62;100.00
73817;BME280;62146;53.232;-1.304;2022-11-20T03:18:49;99605.66;;;7.63;100.00
73817;BME280;62146;53.232;-1.304;2022-11-20T03:21:16;99607.50;;;7.62;100.00
73817;BME280;62146;53.232;-1.304;2022-11-20T03:23:42;99607.50;;;7.62;100.00
73817;BME280;62146;53.232;-1.304;2022-11-20T03:26:15;99601.97;;;7.64;100.00
73817;BME280;62146;53.232;-1.304;2022-11-20T03:28:47;99591.69;;;7.62;100.00
73817;BME280;62146;53.232;-1.304;2022-11-20T03:31:15;99589.03;;;7.62;100.00
73817;BME280;62146;53.232;-1.304;2022-11-20T03:33:42;99579.50;;;7.61;100.00
73817;BME280;62146;53.232;-1.304;2022-11-20T03:36:12;99576.88;;;7.61;100.00
73817;BME280;62146;53.232;-1.304;2022-11-20T03:38:39;99574.22;;;7.61;100.00
73817;BME280;62146;53.232;-1.304;2022-11-20T03:41:09;99570.00;;;7.60;100.00
73817;BME280;62146;53.232;-1.304;2022-11-20T03:43:36;99553.13;;;7.61;100.00
73817;BME280;62146;53.232;-1.304;2022-11-20T03:46:03;99552.31;;;7.61;100.00
73817;BME280;62146;53.232;-1.304;2022-11-20T03:48:30;99550.72;;;7.60;100.00
73817;BME280;62146;53.232;-1.304;2022-11-20T03:53:33;99539.38;;;7.59;100.00
73817;BME280;62146;53.232;-1.304;2022-11-20T03:56:00;99528.84;;;7.59;100.00
73817;BME280;62146;53.232;-1.304;2022-11-20T03:58:26;99529.63;;;7.60;100.00
73817;BME280;62146;53.232;-1.304;2022-11-20T04:00:53;99525.16;;;7.60;100.00
73817;BME280;62146;53.232;-1.304;2022-11-20T04:03:19;99520.91;;;7.59;100.00
73817;BME280;62146;53.232;-1.304;2022-11-20T04:05:46;99517.22;;;7.60;100.00
73817;BME280;62146;53.232;-1.304;2022-11-20T04:08:12;99509.56;;;7.59;100.00
73817;BME280;62146;53.232;-1.304;2022-11-20T04:10:39;99499.81;;;7.59;100.00
73817;BME280;62146;53.232;-1.304;2022-11-20T04:13:05;99501.41;;;7.60;100.00
73817;BME280;62146;53.232;-1.304;2022-11-20T04:15:32;99501.66;;;7.59;100.00
73817;BME280;62146;53.232;-1.304;2022-11-20T04:18:03;99494.53;;;7.59;100.00
73817;BME280;62146;53.232;-1.304;2022-11-20T04:20:30;99485.03;;;7.58;100.00
73817;BME280;62146;53.232;-1.304;2022-11-20T04:22:56;99488.69;;;7.57;100.00
73817;BME280;62146;53.232;-1.304;2022-11-20T04:25:23;99487.69;;;7.58;100.00
73817;BME280;62146;53.232;-1.304;2022-11-20T04:27:49;99481.34;;;7.59;100.00
73817;BME280;62146;53.232;-1.304;2022-11-20T04:30:16;99482.94;;;7.60;100.00
73817;BME280;62146;53.232;-1.304;2022-11-20T04:32:42;99467.38;;;7.59;100.00
73817;BME280;62146;53.232;-1.304;2022-11-20T04:39:04;99464.72;;;7.59;100.00
73817;BME280;62146;53.232;-1.304;2022-11-20T04:41:33;99458.66;;;7.58;100.00
73817;BME280;62146;53.232;-1.304;2022-11-20T04:44:02;99458.41;;;7.60;100.00
73817;BME280;62146;53.232;-1.304;2022-11-20T04:46:50;99446.81;;;7.61;100.00
73817;BME280;62146;53.232;-1.304;2022-11-20T04:49:16;99447.84;;;7.60;100.00
73817;BME280;62146;53.232;-1.304;2022-11-20T04:51:43;99447.84;;;7.60;100.00
73817;BME280;62146;53.232;-1.304;2022-11-20T04:54:11;99443.84;;;7.57;100.00
73817;BME280;62146;53.232;-1.304;2022-11-20T04:56:37;99444.41;;;7.59;100.00
73817;BME280;62146;53.232;-1.304;2022-11-20T04:59:04;99447.59;;;7.61;100.00
73817;BME280;62146;53.232;-1.304;2022-11-20T05:01:31;99452.88;;;7.61;100.00
73817;BME280;62146;53.232;-1.304;2022-11-20T05:03:58;99446.81;;;7.61;100.00
73817;BME280;62146;53.232;-1.304;2022-11-20T05:06:25;99443.94;;;7.62;100.00
73817;BME280;62146;53.232;-1.304;2022-11-20T05:08:52;99441.31;;;7.62;100.00
73817;BME280;62146;53.232;-1.304;2022-11-20T05:11:20;99439.69;;;7.61;100.00
73817;BME280;62146;53.232;-1.304;2022-11-20T05:13:48;99434.97;;;7.63;100.00
73817;BME280;62146;53.232;-1.304;2022-11-20T05:16:22;99436.03;;;7.62;100.00
73817;BME280;62146;53.232;-1.304;2022-11-20T05:18:50;99436.56;;;7.64;100.00
73817;BME280;62146;53.232;-1.304;2022-11-20T05:21:18;99430.50;;;7.64;100.00
73817;BME280;62146;53.232;-1.304;2022-11-20T05:23:45;99443.44;;;7.65;100.00
73817;BME280;62146;53.232;-1.304;2022-11-20T05:26:14;99449.53;;;7.66;100.00
73817;BME280;62146;53.232;-1.304;2022-11-20T05:28:41;99448.47;;;7.67;100.00
73817;BME280;62146;53.232;-1.304;2022-11-20T05:31:11;99448.69;;;7.65;100.00
73817;BME280;62146;53.232;-1.304;2022-11-20T05:33:40;99451.91;;;7.67;100.00
73817;BME280;62146;53.232;-1.304;2022-11-20T05:36:08;99446.63;;;7.67;100.00
73817;BME280;62146;53.232;-1.304;2022-11-20T05:38:34;99450.84;;;7.68;100.00
73817;BME280;62146;53.232;-1.304;2022-11-20T05:41:12;99450.31;;;7.66;100.00
73817;BME280;62146;53.232;-1.304;2022-11-20T05:43:41;99454.56;;;7.67;100.00
73817;BME280;62146;53.232;-1.304;2022-11-20T05:46:09;99447.91;;;7.65;100.00
73817;BME280;62146;53.232;-1.304;2022-11-20T05:48:37;99445.59;;;7.68;100.00
73817;BME280;62146;53.232;-1.304;2022-11-20T05:51:06;99438.47;;;7.69;100.00
73817;BME280;62146;53.232;-1.304;2022-11-20T05:53:34;99449.03;;;7.69;100.00
73817;BME280;62146;53.232;-1.304;2022-11-20T05:56:03;99445.59;;;7.68;100.00
73817;BME280;62146;53.232;-1.304;2022-11-20T05:58:30;99427.13;;;7.68;100.00
73817;BME280;62146;53.232;-1.304;2022-11-20T06:01:05;99442.94;;;7.68;100.00
73817;BME280;62146;53.232;-1.304;2022-11-20T06:03:32;99440.31;;;7.68;100.00
73817;BME280;62146;53.232;-1.304;2022-11-20T06:05:59;99423.44;;;7.69;100.00
73817;BME280;62146;53.232;-1.304;2022-11-20T06:08:26;99424.47;;;7.68;100.00
73817;BME280;62146;53.232;-1.304;2022-11-20T06:10:53;99411.28;;;7.68;100.00
73817;BME280;62146;53.232;-1.304;2022-11-20T06:13:19;99403.63;;;7.67;100.00
73817;BME280;62146;53.232;-1.304;2022-11-20T06:15:50;99398.34;;;7.67;100.00
73817;BME280;62146;53.232;-1.304;2022-11-20T06:18:17;99400.19;;;7.66;100.00
73817;BME280;62146;53.232;-1.304;2022-11-20T06:20:44;99405.69;;;7.65;100.00
73817;BME280;62146;53.232;-1.304;2022-11-20T06:23:12;99397.78;;;7.65;100.00
73817;BME280;62146;53.232;-1.304;2022-11-20T06:25:42;99395.41;;;7.63;100.00
73817;BME280;62146;53.232;-1.304;2022-11-20T06:28:09;99398.84;;;7.64;100.00
73817;BME280;62146;53.232;-1.304;2022-11-20T06:30:35;99397.25;;;7.63;100.00
73817;BME280;62146;53.232;-1.304;2022-11-20T06:33:02;99399.09;;;7.62;100.00
73817;BME280;62146;53.232;-1.304;2022-11-20T06:35:29;99400.09;;;7.61;100.00
73817;BME280;62146;53.232;-1.304;2022-11-20T06:37:55;99390.88;;;7.59;100.00
73817;BME280;62146;53.232;-1.304;2022-11-20T06:40:22;99397.97;;;7.58;100.00
73817;BME280;62146;53.232;-1.304;2022-11-20T06:42:49;99392.13;;;7.56;100.00
73817;BME280;62146;53.232;-1.304;2022-11-20T06:45:15;99391.34;;;7.56;100.00
73817;BME280;62146;53.232;-1.304;2022-11-20T06:47:42;99402.69;;;7.56;100.00
73817;BME280;62146;53.232;-1.304;2022-11-20T06:50:08;99410.59;;;7.56;100.00
73817;BME280;62146;53.232;-1.304;2022-11-20T06:52:35;99409.56;;;7.57;100.00
73817;BME280;62146;53.232;-1.304;2022-11-20T06:55:08;99408.75;;;7.57;100.00
73817;BME280;62146;53.232;-1.304;2022-11-20T06:57:35;99408.75;;;7.57;100.00
73817;BME280;62146;53.232;-1.304;2022-11-20T07:00:02;99407.16;;;7.56;100.00
73817;BME280;62146;53.232;-1.304;2022-11-20T07:02:28;99402.69;;;7.56;100.00
73817;BME280;62146;53.232;-1.304;2022-11-20T07:04:55;99407.44;;;7.54;100.00
73817;BME280;62146;53.232;-1.304;2022-11-20T07:07:21;99404.78;;;7.54;100.00
73817;BME280;62146;53.232;-1.304;2022-11-20T07:09:48;99404.00;;;7.54;100.00
73817;BME280;62146;53.232;-1.304;2022-11-20T07:12:14;99415.34;;;7.54;100.00
73817;BME280;62146;53.232;-1.304;2022-11-20T07:14:41;99418.19;;;7.53;100.00
73817;BME280;62146;53.232;-1.304;2022-11-20T07:17:07;99417.41;;;7.52;100.00
73817;BME280;62146;53.232;-1.304;2022-11-20T07:19:34;99427.16;;;7.52;100.00
73817;BME280;62146;53.232;-1.304;2022-11-20T07:22:00;99420.31;;;7.51;100.00
73817;BME280;62146;53.232;-1.304;2022-11-20T07:24:27;99431.38;;;7.53;100.00
73817;BME280;62146;53.232;-1.304;2022-11-20T07:26:53;99426.38;;;7.51;100.00
73817;BME280;62146;53.232;-1.304;2022-11-20T07:29:20;99421.63;;;7.53;100.00
73817;BME280;62146;53.232;-1.304;2022-11-20T07:31:47;99420.63;;;7.54;100.00
73817;BME280;62146;53.232;-1.304;2022-11-20T07:34:13;99420.63;;;7.54;100.00
73817;BME280;62146;53.232;-1.304;2022-11-20T07:36:40;99421.63;;;7.53;100.00
73817;BME280;62146;53.232;-1.304;2022-11-20T07:39:06;99423.00;;;7.56;100.00
73817;BME280;62146;53.232;-1.304;2022-11-20T07:41:33;99423.25;;;7.54;100.00
73817;BME280;62146;53.232;-1.304;2022-11-20T07:43:59;99425.09;;;7.54;100.00
73817;BME280;62146;53.232;-1.304;2022-11-20T07:46:26;99420.84;;;7.53;100.00
73817;BME280;62146;53.232;-1.304;2022-11-20T07:48:52;99417.88;;;7.49;100.00
73817;BME280;62146;53.232;-1.304;2022-11-20T07:51:19;99428.44;;;7.49;100.00
73817;BME280;62146;53.232;-1.304;2022-11-20T07:53:46;99428.94;;;7.47;100.00
73817;BME280;62146;53.232;-1.304;2022-11-20T07:56:12;99428.94;;;7.47;100.00
73817;BME280;62146;53.232;-1.304;2022-11-20T07:58:40;99435.75;;;7.43;100.00
73817;BME280;62146;53.232;-1.304;2022-11-20T08:01:07;99440.44;;;7.41;100.00
73817;BME280;62146;53.232;-1.304;2022-11-20T08:03:34;99443.56;;;7.38;100.00
73817;BME280;62146;53.232;-1.304;2022-11-20T08:06:04;99439.59;;;7.35;100.00
73817;BME280;62146;53.232;-1.304;2022-11-20T08:08:31;99443.03;;;7.36;100.00
73817;BME280;62146;53.232;-1.304;2022-11-20T08:11:00;99455.41;;;7.35;100.00
73817;BME280;62146;53.232;-1.304;2022-11-20T08:13:46;99463.09;;;7.37;100.00
73817;BME280;62146;53.232;-1.304;2022-11-20T08:16:31;99474.19;;;7.39;100.00
73817;BME280;62146;53.232;-1.304;2022-11-20T08:18:58;99466.03;;;7.40;100.00
73817;BME280;62146;53.232;-1.304;2022-11-20T08:21:24;99466.34;;;7.44;100.00
73817;BME280;62146;53.232;-1.304;2022-11-20T08:23:51;99486.72;;;7.48;100.00
73817;BME280;62146;53.232;-1.304;2022-11-20T08:26:18;99469.63;;;7.50;100.00
73817;BME280;62146;53.232;-1.304;2022-11-20T08:28:44;99486.25;;;7.51;100.00
73817;BME280;62146;53.232;-1.304;2022-11-20T08:31:11;99483.94;;;7.54;100.00
73817;BME280;62146;53.232;-1.304;2022-11-20T08:33:38;99482.63;;;7.57;100.00
73817;BME280;62146;53.232;-1.304;2022-11-20T08:36:05;99478.41;;;7.56;100.00
73817;BME280;62146;53.232;-1.304;2022-11-20T08:38:32;99473.69;;;7.58;100.00
73817;BME280;62146;53.232;-1.304;2022-11-20T08:41:01;99485.84;;;7.59;100.00
73817;BME280;62146;53.232;-1.304;2022-11-20T08:43:46;99482.94;;;7.60;100.00
73817;BME280;62146;53.232;-1.304;2022-11-20T08:46:13;99488.78;;;7.62;100.00
73817;BME280;62146;53.232;-1.304;2022-11-20T08:48:40;99489.31;;;7.64;100.00
73817;BME280;62146;53.232;-1.304;2022-11-20T08:51:06;99483.81;;;7.66;100.00
73817;BME280;62146;53.232;-1.304;2022-11-20T08:53:33;99487.78;;;7.68;100.00
73817;BME280;62146;53.232;-1.304;2022-11-20T08:55:59;99492.34;;;7.73;100.00
73817;BME280;62146;53.232;-1.304;2022-11-20T08:58:26;99491.31;;;7.74;100.00
73817;BME280;62146;53.232;-1.304;2022-11-20T09:00:53;99494.75;;;7.74;100.00
73817;BME280;62146;53.232;-1.304;2022-11-20T09:03:19;99496.09;;;7.76;100.00
73817;BME280;62146;53.232;-1.304;2022-11-20T09:05:46;99483.47;;;7.78;100.00
73817;BME280;62146;53.232;-1.304;2022-11-20T09:08:13;99483.22;;;7.80;100.00
73817;BME280;62146;53.232;-1.304;2022-11-20T09:10:39;99486.41;;;7.82;100.00
73817;BME280;62146;53.232;-1.304;2022-11-20T09:13:06;99493.28;;;7.83;100.00
73817;BME280;62146;53.232;-1.304;2022-11-20T09:15:33;99492.00;;;7.85;100.00
73817;BME280;62146;53.232;-1.304;2022-11-20T09:18:01;99492.81;;;7.86;100.00
73817;BME280;62146;53.232;-1.304;2022-11-20T09:20:29;99501.03;;;7.89;100.00
73817;BME280;62146;53.232;-1.304;2022-11-20T09:22:57;99498.16;;;7.91;100.00
73817;BME280;62146;53.232;-1.304;2022-11-20T09:25:24;99507.66;;;7.92;100.00
73817;BME280;62146;53.232;-1.304;2022-11-20T09:27:59;99510.38;;;7.97;100.00
73817;BME280;62146;53.232;-1.304;2022-11-20T09:30:27;99508.28;;;7.99;100.00
73817;BME280;62146;53.232;-1.304;2022-11-20T09:32:53;99498.81;;;8.02;100.00
73817;BME280;62146;53.232;-1.304;2022-11-20T09:35:20;99500.44;;;8.03;100.00
73817;BME280;62146;53.232;-1.304;2022-11-20T09:37:46;99506.03;;;8.07;100.00
73817;BME280;62146;53.232;-1.304;2022-11-20T09:40:25;99506.34;;;8.10;100.00
73817;BME280;62146;53.232;-1.304;2022-11-20T09:46:00;99504.59;;;8.16;100.00
73817;BME280;62146;53.232;-1.304;2022-11-20T09:49:05;99503.84;;;8.20;100.00
73817;BME280;62146;53.232;-1.304;2022-11-20T09:54:20;99507.09;;;8.27;100.00
73817;BME280;62146;53.232;-1.304;2022-11-20T09:57:02;99503.41;;;8.28;100.00
73817;BME280;62146;53.232;-1.304;2022-11-20T09:59:42;99506.91;;;8.33;100.00
73817;BME280;62146;53.232;-1.304;2022-11-20T10:04:49;99502.97;;;8.36;100.00
73817;BME280;62146;53.232;-1.304;2022-11-20T10:07:23;99496.63;;;8.37;100.00
73817;BME280;62146;53.232;-1.304;2022-11-20T10:09:58;99507.28;;;8.42;100.00
73817;BME280;62146;53.232;-1.304;2022-11-20T10:29:42;99482.09;;;8.60;100.00
73817;BME280;62146;53.232;-1.304;2022-11-20T10:32:19;99479.25;;;8.67;100.00
73817;BME280;62146;53.232;-1.304;2022-11-20T10:35:01;99481.72;;;8.73;100.00
73817;BME280;62146;53.232;-1.304;2022-11-20T10:37:32;99489.25;;;8.86;100.00
73817;BME280;62146;53.232;-1.304;2022-11-20T10:43:11;99503.16;;;9.03;100.00
73817;BME280;62146;53.232;-1.304;2022-11-20T10:48:28;99503.06;;;9.24;100.00
73817;BME280;62146;53.232;-1.304;2022-11-20T10:56:46;99490.78;;;9.44;100.00
73817;BME280;62146;53.232;-1.304;2022-11-20T11:01:57;99492.94;;;9.52;100.00
73817;BME280;62146;53.232;-1.304;2022-11-20T11:07:01;99476.56;;;9.55;100.00
73817;BME280;62146;53.232;-1.304;2022-11-20T11:09:39;99482.72;;;9.60;100.00
73817;BME280;62146;53.232;-1.304;2022-11-20T11:12:11;99486.44;;;9.64;100.00
73817;BME280;62146;53.232;-1.304;2022-11-20T11:14:49;99481.44;;;9.67;100.00
73817;BME280;62146;53.232;-1.304;2022-11-20T11:17:26;99487.53;;;9.73;100.00
73817;BME280;62146;53.232;-1.304;2022-11-20T11:20:18;99478.81;;;9.77;100.00
73817;BME280;62146;53.232;-1.304;2022-11-20T11:22:50;99475.97;;;9.84;100.00
73817;BME280;62146;53.232;-1.304;2022-11-20T11:27:51;99462.56;;;10.00;100.00
73817;BME280;62146;53.232;-1.304;2022-11-20T11:30:19;99466.28;;;10.09;100.00
73817;BME280;62146;53.232;-1.304;2022-11-20T11:32:46;99458.13;;;10.15;100.00
73817;BME280;62146;53.232;-1.304;2022-11-20T11:35:25;99465.31;;;10.24;100.00
73817;BME280;62146;53.232;-1.304;2022-11-20T11:37:54;99466.66;;;10.32;100.00
73817;BME280;62146;53.232;-1.304;2022-11-20T11:40:22;99460.88;;;10.40;100.00
73817;BME280;62146;53.232;-1.304;2022-11-20T11:42:58;99450.56;;;10.48;100.00
73817;BME280;62146;53.232;-1.304;2022-11-20T11:45:26;99445.25;;;10.58;100.00
73817;BME280;62146;53.232;-1.304;2022-11-20T11:47:55;99447.66;;;10.69;100.00
73817;BME280;62146;53.232;-1.304;2022-11-20T11:50:28;99440.81;;;10.78;100.00
73817;BME280;62146;53.232;-1.304;2022-11-20T11:53:16;99436.81;;;10.90;100.00
73817;BME280;62146;53.232;-1.304;2022-11-20T11:55:51;99429.41;;;11.02;100.00
73817;BME280;62146;53.232;-1.304;2022-11-20T11:58:46;99438.66;;;11.14;100.00
73817;BME280;62146;53.232;-1.304;2022-11-20T12:04:23;99434.44;;;11.28;100.00
73817;BME280;62146;53.232;-1.304;2022-11-20T12:07:19;99439.75;;;11.38;100.00
73817;BME280;62146;53.232;-1.304;2022-11-20T12:10:17;99428.84;;;11.49;100.00
73817;BME280;62146;53.232;-1.304;2022-11-20T12:12:50;99425.38;;;11.58;100.00
73817;BME280;62146;53.232;-1.304;2022-11-20T12:15:26;99427.19;;;11.68;100.00
73817;BME280;62146;53.232;-1.304;2022-11-20T12:17:54;99437.03;;;11.77;100.00
73817;BME280;62146;53.232;-1.304;2022-11-20T12:20:25;99436.47;;;11.80;100.00
73817;BME280;62146;53.232;-1.304;2022-11-20T12:23:14;99430.59;;;11.88;100.00
73817;BME280;62146;53.232;-1.304;2022-11-20T12:25:48;99423.13;;;11.95;100.00
73817;BME280;62146;53.232;-1.304;2022-11-20T12:31:26;99425.22;;;12.07;100.00
73817;BME280;62146;53.232;-1.304;2022-11-20T12:34:09;99430.78;;;12.11;100.00
73817;BME280;62146;53.232;-1.304;2022-11-20T12:36:54;99449.38;;;12.16;100.00
73817;BME280;62146;53.232;-1.304;2022-11-20T12:39:31;99441.09;;;12.17;100.00
73817;BME280;62146;53.232;-1.304;2022-11-20T13:04:28;99450.88;;;12.31;100.00
73817;BME280;62146;53.232;-1.304;2022-11-20T13:07:02;99438.13;;;12.29;100.00
73817;BME280;62146;53.232;-1.304;2022-11-20T13:09:32;99437.06;;;12.30;100.00
73817;BME280;62146;53.232;-1.304;2022-11-20T13:12:13;99428.84;;;12.26;100.00
73817;BME280;62146;53.232;-1.304;2022-11-20T13:17:35;99428.03;;;12.26;100.00
73817;BME280;62146;53.232;-1.304;2022-11-20T13:20:05;99423.28;;;12.23;100.00
73817;BME280;62146;53.232;-1.304;2022-11-20T13:25:31;99434.47;;;12.20;100.00
73817;BME280;62146;53.232;-1.304;2022-11-20T13:30:50;99444.59;;;12.13;100.00
73817;BME280;62146;53.232;-1.304;2022-11-20T13:33:32;99444.31;;;12.09;100.00
73817;BME280;62146;53.232;-1.304;2022-11-20T13:36:05;99446.22;;;12.04;100.00
73817;BME280;62146;53.232;-1.304;2022-11-20T13:38:47;99441.72;;;12.00;100.00
73817;BME280;62146;53.232;-1.304;2022-11-20T13:41:30;99448.09;;;11.99;100.00
73817;BME280;62146;53.232;-1.304;2022-11-20T13:46:38;99455.53;;;11.92;100.00
73817;BME280;62146;53.232;-1.304;2022-11-20T13:49:08;99453.44;;;11.89;100.00
73817;BME280;62146;53.232;-1.304;2022-11-20T13:51:42;99453.72;;;11.82;100.00
73817;BME280;62146;53.232;-1.304;2022-11-20T13:57:18;99450.84;;;11.74;100.00
73817;BME280;62146;53.232;-1.304;2022-11-20T14:02:26;99460.66;;;11.69;100.00
73817;BME280;62146;53.232;-1.304;2022-11-20T14:04:57;99452.47;;;11.65;100.00
73817;BME280;62146;53.232;-1.304;2022-11-20T14:07:35;99453.00;;;11.62;100.00
73817;BME280;62146;53.232;-1.304;2022-11-20T14:10:04;99464.16;;;11.59;100.00
73817;BME280;62146;53.232;-1.304;2022-11-20T14:12:33;99451.13;;;11.53;100.00
73817;BME280;62146;53.232;-1.304;2022-11-20T14:15:00;99454.34;;;11.50;100.00
73817;BME280;62146;53.232;-1.304;2022-11-20T14:17:34;99451.69;;;11.45;100.00
73817;BME280;62146;53.232;-1.304;2022-11-20T14:20:06;99446.38;;;11.40;100.00
73817;BME280;62146;53.232;-1.304;2022-11-20T14:22:38;99455.41;;;11.39;100.00
73817;BME280;62146;53.232;-1.304;2022-11-20T14:27:43;99444.53;;;11.31;100.00
73817;BME280;62146;53.232;-1.304;2022-11-20T14:30:16;99443.44;;;11.27;100.00
73817;BME280;62146;53.232;-1.304;2022-11-20T14:32:44;99434.97;;;11.25;100.00
73817;BME280;62146;53.232;-1.304;2022-11-20T14:35:23;99434.97;;;11.20;100.00
73817;BME280;62146;53.232;-1.304;2022-11-20T14:37:51;99440.53;;;11.19;100.00
73817;BME280;62146;53.232;-1.304;2022-11-20T14:40:32;99428.84;;;11.15;100.00
73817;BME280;62146;53.232;-1.304;2022-11-20T14:43:17;99434.97;;;11.10;100.00
73817;BME280;62146;53.232;-1.304;2022-11-20T14:45:46;99428.88;;;11.10;100.00
73817;BME280;62146;53.232;-1.304;2022-11-20T14:48:15;99429.38;;;11.07;100.00
73817;BME280;62146;53.232;-1.304;2022-11-20T14:50:42;99426.22;;;11.05;100.00